createdAt,value
2023-02-28T00:00:38.041Z,2.17
2023-02-28T00:03:05.179Z,1.73
2023-02-28T00:05:35.202Z,2.53
2023-02-28T00:08:02.588Z,2.50
2023-02-28T00:10:30.937Z,2.28
2023-02-28T00:13:01.326Z,2.45
2023-02-28T00:15:28.479Z,1.75
2023-02-28T00:17:55.828Z,2.08
2023-02-28T00:20:22.839Z,2.47
2023-02-28T00:22:52.093Z,1.92
2023-02-28T00:25:25.131Z,2.08
2023-02-28T00:27:52.353Z,1.27
2023-02-28T00:30:21.434Z,1.85
2023-02-28T00:32:48.449Z,2.00
2023-02-28T00:35:15.406Z,1.40
2023-02-28T00:37:43.036Z,1.67
2023-02-28T00:40:13.401Z,1.90
2023-02-28T00:42:40.510Z,1.77
2023-02-28T00:45:09.064Z,1.65
2023-02-28T00:47:38.521Z,1.70
2023-02-28T00:50:06.664Z,1.60
2023-02-28T00:52:33.672Z,2.00
2023-02-28T00:55:00.784Z,1.75
2023-02-28T00:57:27.821Z,1.88
2023-02-28T00:59:55.514Z,1.40
2023-02-28T01:02:23.493Z,1.50
2023-02-28T01:04:50.404Z,2.05
2023-02-28T01:07:17.314Z,1.48
2023-02-28T01:09:44.460Z,1.25
2023-02-28T01:12:11.419Z,1.35
2023-02-28T01:14:38.466Z,1.17
2023-02-28T01:17:05.580Z,1.00
2023-02-28T01:19:32.501Z,1.20
2023-02-28T01:22:03.199Z,1.20
2023-02-28T01:24:30.214Z,1.20
2023-02-28T01:26:57.152Z,2.05
2023-02-28T01:29:24.122Z,1.02
2023-02-28T01:31:51.791Z,1.33
2023-02-28T01:34:20.426Z,1.40
2023-02-28T01:36:47.393Z,1.13
2023-02-28T01:39:14.607Z,1.20
2023-02-28T01:41:41.713Z,1.15
2023-02-28T01:44:47.437Z,1.27
2023-02-28T01:47:14.414Z,1.00
2023-02-28T01:49:41.476Z,1.05
2023-02-28T01:52:08.323Z,2.58
2023-02-28T01:54:35.647Z,1.13
2023-02-28T01:57:11.202Z,1.30
2023-02-28T01:59:56.102Z,2.05
2023-02-28T02:02:23.349Z,0.95
2023-02-28T02:05:04.164Z,1.33
2023-02-28T02:07:33.263Z,1.10
2023-02-28T02:10:16.340Z,0.90
2023-02-28T02:13:05.405Z,1.35
2023-02-28T02:15:40.085Z,1.08
2023-02-28T02:18:20.264Z,1.40
2023-02-28T02:21:17.639Z,1.33
2023-02-28T02:23:53.696Z,1.00
2023-02-28T02:26:45.753Z,1.20
2023-02-28T02:29:23.065Z,1.25
2023-02-28T02:32:13.075Z,1.45
2023-02-28T02:34:51.908Z,1.60
2023-02-28T02:37:32.497Z,1.10
2023-02-28T02:40:17.574Z,1.30
2023-02-28T02:43:05.301Z,1.30
2023-02-28T02:45:38.851Z,1.10
2023-02-28T02:48:08.145Z,1.55
2023-02-28T02:50:38.426Z,1.25
2023-02-28T02:53:05.410Z,1.42
2023-02-28T02:55:33.577Z,1.50
2023-02-28T02:58:03.118Z,1.20
2023-02-28T03:00:38.653Z,1.30
2023-02-28T03:03:05.724Z,1.13
2023-02-28T03:05:51.641Z,1.85
2023-02-28T03:08:18.664Z,1.55
2023-02-28T03:10:50.113Z,1.73
2023-02-28T03:13:32.314Z,1.77
2023-02-28T03:16:29.520Z,1.40
2023-02-28T03:19:17.227Z,1.65
2023-02-28T03:22:05.473Z,2.13
2023-02-28T03:24:49.375Z,1.63
2023-02-28T03:27:36.499Z,2.22
2023-02-28T03:30:34.293Z,1.90
2023-02-28T03:33:10.230Z,2.00
2023-02-28T03:36:02.922Z,2.00
2023-02-28T03:38:35.669Z,1.98
2023-02-28T03:41:25.260Z,2.20
2023-02-28T03:44:02.166Z,1.45
2023-02-28T03:46:32.053Z,2.13
2023-02-28T03:49:18.251Z,2.22
2023-02-28T03:51:45.461Z,1.58
2023-02-28T03:54:15.472Z,1.60
2023-02-28T03:56:54.057Z,1.63
2023-02-28T03:59:26.779Z,1.60
2023-02-28T04:01:53.821Z,1.70
2023-02-28T04:04:21.047Z,1.48
2023-02-28T04:06:51.618Z,1.40
2023-02-28T04:09:18.658Z,2.03
2023-02-28T04:11:47.981Z,1.40
2023-02-28T04:14:14.873Z,1.75
2023-02-28T04:16:42.649Z,1.23
2023-02-28T04:19:10.270Z,1.23
2023-02-28T04:21:41.714Z,1.40
2023-02-28T04:24:09.766Z,1.27
2023-02-28T04:26:38.064Z,1.20
2023-02-28T04:29:06.009Z,1.55
2023-02-28T04:31:33.153Z,1.17
2023-02-28T04:34:00.545Z,1.50
2023-02-28T04:36:27.604Z,1.20
2023-02-28T04:38:54.804Z,1.67
2023-02-28T04:41:22.387Z,1.80
2023-02-28T04:43:49.471Z,1.60
2023-02-28T04:46:16.510Z,1.30
2023-02-28T04:48:44.835Z,1.85
2023-02-28T04:51:16.123Z,1.75
2023-02-28T04:53:43.575Z,1.60
2023-02-28T04:56:14.926Z,1.48
2023-02-28T04:58:41.891Z,1.63
2023-02-28T05:01:19.958Z,1.48
2023-02-28T05:03:49.166Z,1.65
2023-02-28T05:06:16.469Z,1.75
2023-02-28T05:08:43.652Z,1.60
2023-02-28T05:11:35.940Z,2.45
2023-02-28T05:14:04.444Z,2.28
2023-02-28T05:16:32.284Z,1.92
2023-02-28T05:18:59.601Z,2.47
2023-02-28T05:21:28.441Z,2.63
2023-02-28T05:23:56.266Z,2.22
2023-02-28T05:26:23.384Z,2.85
2023-02-28T05:28:50.260Z,2.78
2023-02-28T05:31:17.278Z,2.85
2023-02-28T05:33:44.262Z,2.70
2023-02-28T05:36:11.714Z,2.13
2023-02-28T05:38:39.080Z,3.25
2023-02-28T05:41:09.925Z,3.70
2023-02-28T05:43:39.367Z,3.72
2023-02-28T05:46:07.299Z,3.47
2023-02-28T05:48:38.357Z,3.92
2023-02-28T05:51:06.154Z,4.00
2023-02-28T05:53:33.229Z,4.07
2023-02-28T05:56:00.249Z,4.47
2023-02-28T05:58:30.273Z,4.93
2023-02-28T06:01:00.312Z,4.53
2023-02-28T06:03:27.588Z,5.28
2023-02-28T06:05:54.826Z,4.93
2023-02-28T06:08:21.947Z,4.38
2023-02-28T06:10:48.937Z,6.00
2023-02-28T06:13:16.386Z,5.43
2023-02-28T06:15:43.234Z,4.82
2023-02-28T06:18:10.111Z,5.22
2023-02-28T06:20:37.404Z,6.35
2023-02-28T06:23:04.318Z,6.07
2023-02-28T06:25:31.355Z,5.15
2023-02-28T06:27:58.329Z,5.05
2023-02-28T06:30:27.848Z,5.60
2023-02-28T06:32:55.944Z,5.47
2023-02-28T06:35:23.561Z,4.93
2023-02-28T06:37:50.487Z,4.80
2023-02-28T06:40:17.659Z,5.30
2023-02-28T06:42:44.682Z,5.45
2023-02-28T06:45:12.186Z,5.53
2023-02-28T06:47:39.913Z,5.68
2023-02-28T06:50:07.439Z,4.88
2023-02-28T06:52:37.321Z,6.03
2023-02-28T06:55:07.629Z,5.97
2023-02-28T06:57:35.862Z,5.60
2023-02-28T07:00:08.716Z,5.40
2023-02-28T07:02:36.776Z,5.30
2023-02-28T07:05:04.555Z,5.88
2023-02-28T07:07:33.994Z,5.47
2023-02-28T07:10:01.095Z,5.03
2023-02-28T07:12:28.167Z,5.93
2023-02-28T07:14:57.012Z,7.03
2023-02-28T07:17:24.134Z,5.28
2023-02-28T07:19:50.913Z,4.93
2023-02-28T07:22:17.907Z,5.55
2023-02-28T07:24:44.914Z,5.32
2023-02-28T07:27:12.041Z,5.55
2023-02-28T07:29:39.430Z,5.57
2023-02-28T07:32:06.594Z,5.63
2023-02-28T07:34:33.631Z,5.10
2023-02-28T07:37:01.075Z,5.15
2023-02-28T07:39:28.182Z,5.15
2023-02-28T07:41:55.145Z,4.90
2023-02-28T07:44:22.276Z,4.95
2023-02-28T07:46:49.508Z,5.13
2023-02-28T07:49:16.570Z,4.53
2023-02-28T07:51:43.976Z,4.38
2023-02-28T07:54:11.131Z,4.20
2023-02-28T07:56:38.025Z,4.53
2023-02-28T07:59:07.872Z,3.47
2023-02-28T08:01:34.859Z,3.00
2023-02-28T08:04:02.019Z,3.03
2023-02-28T08:06:29.052Z,2.38
2023-02-28T08:08:57.253Z,2.80
2023-02-28T08:11:24.390Z,2.83
2023-02-28T08:13:51.857Z,2.80
2023-02-28T08:16:23.189Z,2.67
2023-02-28T08:18:54.068Z,2.45
2023-02-28T08:21:21.728Z,2.35
2023-02-28T08:23:52.202Z,2.30
2023-02-28T08:26:19.354Z,2.05
2023-02-28T08:28:46.618Z,1.90
2023-02-28T08:31:15.476Z,2.13
2023-02-28T08:33:42.815Z,1.65
2023-02-28T08:36:10.266Z,2.22
2023-02-28T08:38:40.849Z,2.28
2023-02-28T08:41:11.224Z,1.70
2023-02-28T08:43:38.668Z,1.85
2023-02-28T08:46:05.882Z,1.60
2023-02-28T08:48:33.820Z,2.30
2023-02-28T08:51:07.682Z,1.58
2023-02-28T08:53:35.179Z,1.23
2023-02-28T08:56:04.272Z,1.65
2023-02-28T08:58:31.406Z,1.33
2023-02-28T09:00:58.521Z,2.13
2023-02-28T09:03:25.599Z,1.48
2023-02-28T09:06:00.057Z,1.20
2023-02-28T09:08:28.210Z,0.98
2023-02-28T09:10:55.653Z,0.98
2023-02-28T09:13:23.037Z,1.48
2023-02-28T09:15:50.219Z,1.00
2023-02-28T09:18:17.451Z,1.23
2023-02-28T09:20:44.950Z,1.00
2023-02-28T09:23:12.637Z,1.20
2023-02-28T09:25:45.707Z,1.13
2023-02-28T09:28:12.847Z,0.80
2023-02-28T09:30:42.193Z,1.00
2023-02-28T09:33:09.459Z,1.35
2023-02-28T09:35:38.561Z,1.13
2023-02-28T09:38:06.023Z,1.20
2023-02-28T09:40:33.481Z,1.13
2023-02-28T09:43:00.931Z,1.42
2023-02-28T09:45:42.327Z,1.13
2023-02-28T09:48:24.629Z,1.70
2023-02-28T09:50:54.243Z,1.10
2023-02-28T09:53:35.150Z,1.10
2023-02-28T09:56:16.756Z,1.50
2023-02-28T09:58:51.256Z,1.70
2023-02-28T10:01:18.391Z,1.30
2023-02-28T10:03:52.061Z,1.42
2023-02-28T10:06:20.578Z,0.88
2023-02-28T10:08:58.669Z,1.13
2023-02-28T10:11:25.930Z,1.20
2023-02-28T10:14:06.855Z,1.27
2023-02-28T10:16:41.276Z,1.45
2023-02-28T10:19:16.182Z,1.20
2023-02-28T10:21:49.317Z,1.25
2023-02-28T10:24:31.839Z,0.83
2023-02-28T10:27:07.832Z,1.13
2023-02-28T10:29:35.052Z,1.20
2023-02-28T10:32:03.837Z,1.65
2023-02-28T10:34:31.015Z,1.55
2023-02-28T10:37:08.283Z,1.20
2023-02-28T10:39:46.603Z,1.55
2023-02-28T10:42:27.484Z,0.93
2023-02-28T10:45:08.001Z,1.00
2023-02-28T10:47:36.190Z,1.02
2023-02-28T10:50:03.309Z,1.10
2023-02-28T10:52:48.746Z,1.10
2023-02-28T10:55:26.327Z,0.93
2023-02-28T10:57:53.518Z,0.68
2023-02-28T11:00:26.336Z,0.60
2023-02-28T11:02:53.336Z,0.50
2023-02-28T11:05:32.889Z,0.75
2023-02-28T11:08:20.375Z,0.85
2023-02-28T11:10:56.375Z,0.60
2023-02-28T11:13:35.068Z,0.50
2023-02-28T11:16:06.634Z,0.50
2023-02-28T11:18:39.982Z,0.80
2023-02-28T11:21:06.858Z,0.40
2023-02-28T11:23:36.507Z,0.73
2023-02-28T11:26:05.962Z,0.70
2023-02-28T11:28:38.041Z,0.88
2023-02-28T11:31:17.022Z,0.82
2023-02-28T11:33:46.164Z,0.90
2023-02-28T11:36:17.709Z,0.80
2023-02-28T11:38:45.402Z,0.73
2023-02-28T11:41:30.434Z,0.73
2023-02-28T11:44:20.052Z,0.80
2023-02-28T11:46:55.558Z,1.40
2023-02-28T11:49:28.224Z,0.88
2023-02-28T11:52:04.160Z,0.95
2023-02-28T11:55:06.350Z,1.02
2023-02-28T11:57:55.448Z,0.90
2023-02-28T12:00:34.833Z,1.10
2023-02-28T12:03:27.284Z,1.00
2023-02-28T12:06:13.304Z,1.08
2023-02-28T12:09:21.967Z,1.02
2023-02-28T12:11:58.154Z,1.10
2023-02-28T12:14:43.825Z,0.98
2023-02-28T12:17:16.880Z,1.10
2023-02-28T12:20:31.897Z,1.17
2023-02-28T12:23:17.418Z,1.10
2023-02-28T12:26:10.915Z,1.42
2023-02-28T12:28:50.261Z,1.13
2023-02-28T12:31:26.104Z,1.27
2023-02-28T12:33:54.944Z,1.23
2023-02-28T12:36:23.182Z,1.00
2023-02-28T12:39:02.675Z,1.10
2023-02-28T12:42:00.340Z,0.90
2023-02-28T12:44:38.190Z,1.10
2023-02-28T12:47:07.162Z,1.10
2023-02-28T12:49:51.976Z,1.10
2023-02-28T12:52:21.942Z,0.80
2023-02-28T12:54:58.315Z,0.90
2023-02-28T12:57:45.215Z,0.90
2023-02-28T13:00:17.674Z,0.80
2023-02-28T13:02:53.933Z,1.10
2023-02-28T13:05:27.491Z,1.10
2023-02-28T13:08:16.368Z,0.70
2023-02-28T13:10:55.648Z,0.80
2023-02-28T13:13:29.241Z,0.82
2023-02-28T13:16:10.053Z,0.77
2023-02-28T13:18:43.038Z,0.80
2023-02-28T13:21:11.385Z,1.92
2023-02-28T13:23:56.968Z,1.08
2023-02-28T13:26:50.256Z,1.00
2023-02-28T13:29:20.268Z,0.80
2023-02-28T13:32:09.824Z,0.90
2023-02-28T13:34:37.313Z,0.98
2023-02-28T13:37:22.396Z,0.70
2023-02-28T13:39:52.923Z,1.00
2023-02-28T13:42:32.190Z,0.70
2023-02-28T13:45:05.265Z,0.70
2023-02-28T13:47:54.640Z,0.73
2023-02-28T13:50:27.835Z,0.88
2023-02-28T13:53:19.860Z,0.90
2023-02-28T13:56:20.745Z,0.70
2023-02-28T13:58:54.003Z,0.90
2023-02-28T14:01:37.223Z,0.80
2023-02-28T14:04:42.060Z,0.80
2023-02-28T14:07:09.142Z,0.90
2023-02-28T14:09:38.652Z,0.85
2023-02-28T14:12:43.050Z,0.65
2023-02-28T14:15:29.613Z,0.82
2023-02-28T14:17:57.311Z,0.70
2023-02-28T14:20:25.601Z,0.70
2023-02-28T14:23:11.545Z,0.70
2023-02-28T14:25:57.055Z,0.73
2023-02-28T14:28:45.357Z,0.60
2023-02-28T14:31:24.574Z,0.50
2023-02-28T14:34:00.389Z,0.52
2023-02-28T14:36:35.017Z,0.55
2023-02-28T14:39:25.659Z,0.50
2023-02-28T14:41:53.133Z,0.40
2023-02-28T14:44:27.394Z,0.50
2023-02-28T14:47:06.765Z,0.50
2023-02-28T14:49:39.087Z,0.50
2023-02-28T14:52:21.504Z,0.50
2023-02-28T14:54:53.970Z,0.43
2023-02-28T14:57:35.153Z,0.50
2023-02-28T15:00:23.978Z,0.40
2023-02-28T15:02:51.214Z,0.68
2023-02-28T15:05:24.303Z,0.40
2023-02-28T15:08:11.488Z,0.60
2023-02-28T15:10:38.667Z,0.45
2023-02-28T15:13:11.409Z,0.50
2023-02-28T15:16:02.069Z,0.60
2023-02-28T15:18:51.953Z,0.40
2023-02-28T15:21:21.607Z,0.43
2023-02-28T15:24:08.008Z,0.30
2023-02-28T15:26:39.784Z,0.50
2023-02-28T15:29:18.469Z,0.50
2023-02-28T15:31:56.891Z,0.40
2023-02-28T15:34:43.503Z,0.40
2023-02-28T15:37:25.824Z,0.50
2023-02-28T15:39:52.802Z,0.40
2023-02-28T15:42:21.309Z,0.40
2023-02-28T15:44:48.495Z,0.40
2023-02-28T15:47:29.850Z,0.50
2023-02-28T15:49:58.217Z,0.40
2023-02-28T15:52:51.939Z,0.40
2023-02-28T15:55:29.137Z,0.40
2023-02-28T15:57:59.679Z,0.40
2023-02-28T16:00:27.622Z,0.40
2023-02-28T16:02:54.600Z,0.50
2023-02-28T16:05:32.974Z,0.40
2023-02-28T16:08:12.704Z,0.57
2023-02-28T16:10:39.782Z,0.40
2023-02-28T16:13:07.030Z,0.40
2023-02-28T16:15:42.575Z,0.55
2023-02-28T16:18:11.686Z,0.60
2023-02-28T16:20:38.790Z,0.40
2023-02-28T16:23:05.746Z,0.50
2023-02-28T16:25:37.934Z,0.47
2023-02-28T16:28:04.973Z,0.40
2023-02-28T16:30:34.466Z,0.50
2023-02-28T16:33:01.427Z,0.40
2023-02-28T16:35:28.351Z,0.50
2023-02-28T16:37:55.733Z,0.57
2023-02-28T16:40:24.842Z,0.47
2023-02-28T16:42:52.677Z,0.50
2023-02-28T16:45:25.799Z,0.50
2023-02-28T16:47:52.891Z,0.63
2023-02-28T16:50:27.454Z,0.40
2023-02-28T16:52:55.610Z,0.40
2023-02-28T16:55:23.492Z,0.40
2023-02-28T16:57:55.783Z,0.50
2023-02-28T17:00:23.152Z,0.60
2023-02-28T17:02:50.602Z,0.65
2023-02-28T17:05:18.771Z,0.60
2023-02-28T17:07:46.392Z,0.60
2023-02-28T17:10:24.731Z,0.63
2023-02-28T17:12:52.207Z,0.68
2023-02-28T17:15:20.427Z,0.40
2023-02-28T17:17:48.049Z,0.40
2023-02-28T17:20:15.885Z,0.32
2023-02-28T17:22:42.936Z,0.68
2023-02-28T17:25:10.795Z,0.70
2023-02-28T17:27:38.018Z,0.60
2023-02-28T17:30:14.706Z,0.50
2023-02-28T17:32:42.024Z,0.70
2023-02-28T17:35:09.565Z,0.50
2023-02-28T17:37:36.736Z,0.50
2023-02-28T17:40:04.354Z,0.60
2023-02-28T17:42:31.298Z,0.70
2023-02-28T17:44:58.058Z,0.60
2023-02-28T17:47:25.023Z,0.98
2023-02-28T17:49:52.329Z,0.60
2023-02-28T17:52:19.172Z,0.60
2023-02-28T17:54:46.262Z,0.55
2023-02-28T17:57:15.641Z,0.50
2023-02-28T17:59:43.205Z,0.55
2023-02-28T18:02:12.701Z,0.50
2023-02-28T18:04:39.748Z,0.80
2023-02-28T18:07:11.516Z,0.70
2023-02-28T18:09:38.502Z,0.60
2023-02-28T18:12:05.802Z,0.60
2023-02-28T18:14:32.787Z,0.63
2023-02-28T18:16:59.774Z,0.60
2023-02-28T18:19:26.830Z,0.60
2023-02-28T18:21:54.300Z,0.50
2023-02-28T18:24:21.942Z,0.60
2023-02-28T18:26:49.410Z,0.55
2023-02-28T18:29:22.087Z,0.77
2023-02-28T18:31:49.254Z,0.60
2023-02-28T18:34:16.355Z,0.60
2023-02-28T18:36:43.451Z,0.60
2023-02-28T18:39:12.253Z,0.60
2023-02-28T18:41:39.744Z,0.50
2023-02-28T18:44:18.804Z,0.60
2023-02-28T18:46:46.608Z,0.68
2023-02-28T18:49:13.870Z,0.60
2023-02-28T18:51:45.483Z,0.50
2023-02-28T18:54:13.777Z,0.63
2023-02-28T18:56:40.800Z,0.70
2023-02-28T18:59:07.687Z,0.60
2023-02-28T19:01:34.667Z,0.52
2023-02-28T19:04:01.849Z,0.60
2023-02-28T19:06:29.966Z,0.60
2023-02-28T19:08:57.780Z,0.60
2023-02-28T19:11:24.940Z,0.60
2023-02-28T19:13:51.967Z,0.70
2023-02-28T19:16:19.720Z,0.80
2023-02-28T19:18:46.733Z,0.70
2023-02-28T19:21:14.690Z,0.63
2023-02-28T19:23:42.343Z,0.60
2023-02-28T19:26:13.980Z,0.80
2023-02-28T19:28:41.164Z,0.65
2023-02-28T19:31:15.406Z,0.60
2023-02-28T19:33:42.453Z,0.50
2023-02-28T19:36:12.128Z,0.90
2023-02-28T19:38:41.717Z,0.80
2023-02-28T19:41:09.937Z,0.80
2023-02-28T19:43:37.286Z,0.80
2023-02-28T19:46:04.579Z,0.65
2023-02-28T19:48:31.405Z,0.60
2023-02-28T19:50:59.377Z,0.60
2023-02-28T19:53:27.123Z,0.63
2023-02-28T19:55:54.649Z,0.60
2023-02-28T19:58:21.729Z,0.90
2023-02-28T20:00:48.981Z,0.63
2023-02-28T20:03:16.434Z,0.85
2023-02-28T20:05:43.423Z,0.80
2023-02-28T20:08:10.384Z,0.80
2023-02-28T20:10:37.331Z,0.70
2023-02-28T20:13:04.422Z,0.80
2023-02-28T20:15:32.537Z,0.75
2023-02-28T20:18:00.607Z,0.82
2023-02-28T20:20:27.680Z,0.88
2023-02-28T20:22:54.774Z,0.70
2023-02-28T20:25:21.685Z,0.82
2023-02-28T20:27:48.541Z,0.80
2023-02-28T20:30:15.397Z,0.93
2023-02-28T20:32:42.344Z,0.90
2023-02-28T20:35:11.785Z,0.80
2023-02-28T20:37:39.351Z,0.90
2023-02-28T20:40:07.145Z,1.00
2023-02-28T20:42:34.036Z,1.33
2023-02-28T20:45:01.064Z,1.27
2023-02-28T20:47:27.902Z,2.78
2023-02-28T20:49:54.870Z,3.22
2023-02-28T20:52:21.908Z,3.10
2023-02-28T20:54:48.598Z,4.13
2023-02-28T20:57:15.427Z,3.95
2023-02-28T20:59:42.332Z,4.72
2023-02-28T21:02:10.231Z,5.00
2023-02-28T21:04:37.330Z,5.05
2023-02-28T21:07:04.887Z,5.28
2023-02-28T21:09:31.783Z,5.32
2023-02-28T21:12:01.226Z,5.75
2023-02-28T21:14:28.236Z,5.78
2023-02-28T21:16:55.141Z,5.28
2023-02-28T21:19:25.130Z,6.30
2023-02-28T21:21:52.028Z,5.55
2023-02-28T21:24:19.615Z,5.70
2023-02-28T21:26:47.152Z,7.80
2023-02-28T21:29:15.250Z,6.15
2023-02-28T21:31:42.117Z,5.95
2023-02-28T21:34:10.482Z,5.28
2023-02-28T21:36:39.832Z,6.22
2023-02-28T21:39:29.012Z,5.13
2023-02-28T21:41:56.996Z,5.40
2023-02-28T21:44:24.049Z,5.90
2023-02-28T21:46:52.658Z,5.88
2023-02-28T21:49:19.507Z,6.13
2023-02-28T21:51:46.601Z,5.68
2023-02-28T21:54:14.016Z,6.40
2023-02-28T21:56:40.768Z,6.82
2023-02-28T21:59:09.568Z,6.05
2023-02-28T22:01:39.041Z,6.43
2023-02-28T22:04:07.842Z,7.75
2023-02-28T22:06:41.054Z,6.82
2023-02-28T22:09:09.476Z,5.30
2023-02-28T22:11:36.629Z,5.70
2023-02-28T22:14:03.552Z,6.60
2023-02-28T22:16:35.253Z,7.32
2023-02-28T22:19:08.014Z,7.03
2023-02-28T22:21:36.252Z,6.38
2023-02-28T22:24:03.608Z,6.90
2023-02-28T22:26:30.711Z,6.93
2023-02-28T22:28:57.984Z,7.47
2023-02-28T22:31:32.620Z,6.45
2023-02-28T22:34:01.563Z,7.38
2023-02-28T22:36:28.634Z,6.65
2023-02-28T22:38:56.799Z,5.55
2023-02-28T22:41:23.719Z,3.35
2023-02-28T22:43:55.302Z,3.30
2023-02-28T22:46:22.924Z,2.67
2023-02-28T22:48:50.468Z,2.40
2023-02-28T22:51:19.211Z,2.60
2023-02-28T22:53:47.221Z,2.25
2023-02-28T22:56:14.542Z,2.60
2023-02-28T22:58:41.680Z,2.92
2023-02-28T23:01:10.171Z,3.08
2023-02-28T23:03:37.320Z,3.22
2023-02-28T23:06:29.990Z,3.03
2023-02-28T23:08:59.271Z,2.88
2023-02-28T23:11:29.156Z,3.03
2023-02-28T23:13:59.298Z,3.33
2023-02-28T23:16:38.332Z,3.30
2023-02-28T23:19:07.021Z,4.10
2023-02-28T23:21:34.500Z,4.40
2023-02-28T23:24:02.915Z,4.47
2023-02-28T23:26:31.235Z,4.55
2023-02-28T23:28:58.580Z,3.92
2023-02-28T23:31:25.441Z,4.70
2023-02-28T23:33:52.307Z,4.60
2023-02-28T23:36:19.261Z,4.50
2023-02-28T23:38:47.854Z,5.03
2023-02-28T23:41:14.774Z,5.35
2023-02-28T23:43:41.814Z,5.13
2023-02-28T23:46:09.401Z,4.65
2023-02-28T23:48:36.702Z,5.63
2023-02-28T23:51:08.545Z,4.70
2023-02-28T23:53:39.473Z,4.65
2023-02-28T23:56:07.414Z,6.07
2023-02-28T23:58:34.518Z,5.68
